Hovedside
METAR-TAF:

METAR-TAF

Lufthavner :

Prins Said Ibrahim internasjonale lufthavn

Moroni, Komorene

breddegrad: 11-32S, lengdegrad: 043-16E, høyde over havet: 29 m

Gjeldene værobservasjon

Denne rapporten ble laget for 56 minutter siden, klokken 11:00 UTC
Vind 16 kt fra Øst-sørøst
Temperatur 29°C
Luftfuktighet 55%
Trykk 1017 hPa
Sikt 10 km eller mer
Spredte skyer i en høyde av 2200 ft

METAR: FMCH 041100Z 12016KT 9999 SCT022 29/19 Q1017 NOSIG

Tid: 14:56 (11:56 UTC)

Varsel

Denne rapporten ble laget for 56 minutter siden, klokken 11:00 UTC
Varsel gyldig fra 04. klokken 12 UTC til 05. klokken 18 UTC
Vind 16 kt fra Sørøst
Sikt 10 km eller mer
Få skyer i en høyde av 2000 ft
Spredte skyer i en høyde av 3000 ft
Blir
fra 04. klokken 16 UTC til 04. klokken 18 UTC
Vind 5 kt fra Øst med vindkast opp mot 15 kt
Blir
fra 05. klokken 05 UTC til 05. klokken 07 UTC
Vind 16 kt fra Sør

TAF: FMCH 041100Z 0412/0518 14016KT 9999 FEW020 SCT030 BECMG 0416/0418 10005G15KT BECMG 0505/0507 19016KT

Værobservasjoner og værvarsel for over 4000 flyplasser (METAR- og TAF-rapporter).

Tilgjengelige stasjoner er representert av de røde og gule prikkene på kartet.

Hold musepekeren over prikken for å se navnet på stasjonen.

Klikk så for å se værobservasjoner og -varsler.

For å forandre kartet kan du klikke på den grønne knappen med svart kryss for å zoome inn, på den grønne knappen med strek for å zoome ut, eller på de grønne pilene for å se tilstøtende kart.


METAR-TAF: